createdAt,value
2018-02-03T00:00:14.221Z,21.69
2018-02-03T00:01:16.692Z,21.75
2018-02-03T00:02:19.169Z,21.83
2018-02-03T00:03:21.686Z,21.88
2018-02-03T00:04:24.149Z,21.88
2018-02-03T00:05:26.629Z,21.90
2018-02-03T00:06:29.105Z,21.93
2018-02-03T00:07:31.566Z,21.91
2018-02-03T00:08:34.043Z,21.88
2018-02-03T00:09:36.517Z,21.85
2018-02-03T00:10:38.989Z,21.83
2018-02-03T00:11:41.444Z,21.81
2018-02-03T00:12:43.912Z,21.80
2018-02-03T00:13:46.386Z,21.80
2018-02-03T00:14:48.865Z,21.80
2018-02-03T00:15:51.349Z,21.77
2018-02-03T00:16:53.806Z,21.77
2018-02-03T00:17:56.276Z,21.76
2018-02-03T00:18:58.774Z,21.74
2018-02-03T00:20:01.245Z,21.74
2018-02-03T00:21:03.706Z,21.71
2018-02-03T00:22:06.176Z,21.67
2018-02-03T00:23:08.662Z,21.65
2018-02-03T00:24:11.152Z,21.62
2018-02-03T00:25:13.611Z,21.60
2018-02-03T00:26:16.066Z,21.62
2018-02-03T00:27:18.537Z,21.61
2018-02-03T00:28:21.031Z,21.62
2018-02-03T00:29:23.527Z,21.60
2018-02-03T00:30:25.997Z,21.61
2018-02-03T00:31:28.474Z,21.62
2018-02-03T00:32:30.953Z,21.62
2018-02-03T00:33:33.428Z,21.59
2018-02-03T00:34:35.906Z,21.57
2018-02-03T00:35:38.358Z,21.53
2018-02-03T00:36:40.823Z,21.52
2018-02-03T00:37:43.282Z,21.50
2018-02-03T00:38:45.752Z,21.49
2018-02-03T00:39:48.230Z,21.49
2018-02-03T00:40:50.687Z,21.47
2018-02-03T00:41:53.161Z,21.43
2018-02-03T00:42:55.622Z,21.42
2018-02-03T00:43:58.087Z,21.39
2018-02-03T00:45:00.575Z,21.36
2018-02-03T00:46:03.107Z,21.35
2018-02-03T00:47:05.585Z,21.31
2018-02-03T00:48:08.065Z,21.29
2018-02-03T00:49:10.537Z,21.25
2018-02-03T00:50:13.029Z,21.22
2018-02-03T00:51:15.486Z,21.19
2018-02-03T00:52:17.950Z,21.14
2018-02-03T00:53:20.426Z,21.11
2018-02-03T00:54:22.912Z,21.10
2018-02-03T00:55:25.412Z,21.09
2018-02-03T00:56:27.888Z,21.05
2018-02-03T00:57:30.364Z,21.07
2018-02-03T00:58:32.837Z,21.10
2018-02-03T00:59:35.308Z,21.19
2018-02-03T01:00:37.828Z,21.32
2018-02-03T01:01:40.300Z,21.42
2018-02-03T01:02:42.798Z,21.51
2018-02-03T01:03:45.260Z,21.59
2018-02-03T01:04:47.733Z,21.68
2018-02-03T01:05:50.224Z,21.71
2018-02-03T01:06:52.701Z,21.75
2018-02-03T01:07:55.177Z,21.77
2018-02-03T01:08:57.661Z,21.78
2018-02-03T01:10:00.119Z,21.80
2018-02-03T01:11:02.617Z,21.83
2018-02-03T01:12:05.094Z,21.81
2018-02-03T01:13:07.550Z,21.81
2018-02-03T01:14:10.045Z,21.78
2018-02-03T01:15:12.520Z,21.74
2018-02-03T01:16:15.013Z,21.70
2018-02-03T01:17:17.488Z,21.67
2018-02-03T01:18:19.972Z,21.66
2018-02-03T01:19:22.445Z,21.62
2018-02-03T01:20:24.912Z,21.61
2018-02-03T01:21:27.391Z,21.64
2018-02-03T01:22:29.860Z,21.66
2018-02-03T01:23:32.320Z,21.75
2018-02-03T01:24:34.798Z,21.81
2018-02-03T01:25:37.272Z,21.92
2018-02-03T01:26:39.754Z,22.01
2018-02-03T01:27:42.214Z,22.02
2018-02-03T01:28:44.667Z,22.07
2018-02-03T01:29:47.144Z,22.06
2018-02-03T01:30:49.616Z,22.09
2018-02-03T01:31:52.095Z,22.08
2018-02-03T01:32:54.571Z,22.10
2018-02-03T01:33:57.040Z,22.07
2018-02-03T01:34:59.497Z,22.07
2018-02-03T01:36:01.959Z,22.04
2018-02-03T01:37:04.439Z,22.02
2018-02-03T01:38:06.889Z,22.02
2018-02-03T01:39:09.351Z,22.06
2018-02-03T01:40:11.824Z,22.07
2018-02-03T01:41:14.300Z,22.09
2018-02-03T01:42:16.784Z,22.09
2018-02-03T01:43:19.257Z,22.12
2018-02-03T01:44:21.713Z,22.10
2018-02-03T01:45:24.167Z,22.08
2018-02-03T01:46:26.623Z,22.07
2018-02-03T01:49:07.910Z,22.00
2018-02-03T01:50:10.384Z,21.99
2018-02-03T01:51:12.865Z,21.98
2018-02-03T01:52:15.330Z,22.00
2018-02-03T01:53:17.799Z,22.01
2018-02-03T01:54:20.273Z,22.09
2018-02-03T01:55:22.731Z,22.13
2018-02-03T01:56:25.190Z,22.15
2018-02-03T01:57:27.655Z,22.20
2018-02-03T01:58:30.133Z,22.25
2018-02-03T01:59:32.604Z,22.27
2018-02-03T02:00:35.072Z,22.26
2018-02-03T02:01:37.604Z,22.25
2018-02-03T02:02:40.049Z,22.25
2018-02-03T02:03:42.524Z,22.25
2018-02-03T02:04:44.998Z,22.21
2018-02-03T02:05:47.454Z,22.20
2018-02-03T02:06:49.926Z,22.17
2018-02-03T02:07:52.396Z,22.14
2018-02-03T02:08:54.847Z,22.14
2018-02-03T02:09:57.307Z,22.12
2018-02-03T02:10:59.789Z,22.07
2018-02-03T02:12:02.275Z,22.06
2018-02-03T02:13:04.735Z,22.03
2018-02-03T02:14:07.198Z,22.04
2018-02-03T02:15:09.697Z,22.07
2018-02-03T02:16:12.150Z,22.13
2018-02-03T02:17:14.628Z,22.19
2018-02-03T02:18:17.087Z,22.23
2018-02-03T02:19:19.564Z,22.31
2018-02-03T02:20:22.041Z,22.34
2018-02-03T02:21:24.513Z,22.36
2018-02-03T02:22:26.985Z,22.38
2018-02-03T02:23:29.438Z,22.40
2018-02-03T02:24:31.890Z,22.38
2018-02-03T02:25:34.346Z,22.36
2018-02-03T02:26:36.821Z,22.32
2018-02-03T02:27:39.274Z,22.33
2018-02-03T02:28:41.761Z,22.28
2018-02-03T02:29:44.290Z,22.24
2018-02-03T02:30:46.722Z,22.20
2018-02-03T02:31:49.198Z,22.17
2018-02-03T02:32:51.654Z,22.14
2018-02-03T02:33:54.128Z,22.11
2018-02-03T02:34:56.616Z,22.08
2018-02-03T02:35:59.074Z,22.05
2018-02-03T02:37:01.545Z,22.04
2018-02-03T02:38:04.084Z,22.07
2018-02-03T02:39:06.494Z,22.10
2018-02-03T02:40:08.956Z,22.16
2018-02-03T02:41:11.422Z,22.24
2018-02-03T02:42:13.894Z,22.28
2018-02-03T02:43:16.374Z,22.33
2018-02-03T02:44:18.858Z,22.34
2018-02-03T02:45:21.316Z,22.36
2018-02-03T02:46:23.784Z,22.35
2018-02-03T02:47:26.253Z,22.37
2018-02-03T02:48:28.728Z,22.36
2018-02-03T02:49:31.333Z,22.34
2018-02-03T02:50:33.814Z,22.32
2018-02-03T02:51:36.283Z,22.27
2018-02-03T02:52:38.765Z,22.24
2018-02-03T02:53:41.218Z,22.21
2018-02-03T02:54:43.698Z,22.16
2018-02-03T02:55:46.158Z,22.13
2018-02-03T02:56:48.636Z,22.09
2018-02-03T02:57:51.110Z,22.05
2018-02-03T02:58:53.586Z,22.02
2018-02-03T02:59:56.046Z,22.01
2018-02-03T03:00:58.506Z,22.02
2018-02-03T03:02:00.989Z,22.07
2018-02-03T03:03:03.465Z,22.15
2018-02-03T03:04:05.942Z,22.21
2018-02-03T03:05:08.412Z,22.25
2018-02-03T03:06:10.885Z,22.30
2018-02-03T03:07:13.351Z,22.32
2018-02-03T03:08:15.815Z,22.37
2018-02-03T03:09:18.285Z,22.36
2018-02-03T03:10:20.755Z,22.34
2018-02-03T03:11:23.245Z,22.36
2018-02-03T03:12:25.725Z,22.34
2018-02-03T03:13:28.183Z,22.30
2018-02-03T03:14:30.643Z,22.26
2018-02-03T03:15:33.119Z,22.23
2018-02-03T03:16:35.600Z,22.20
2018-02-03T03:17:38.056Z,22.18
2018-02-03T03:18:40.561Z,22.15
2018-02-03T03:19:43.030Z,22.11
2018-02-03T03:20:45.492Z,22.07
2018-02-03T03:21:47.993Z,22.05
2018-02-03T03:22:50.461Z,22.03
2018-02-03T03:23:52.945Z,22.03
2018-02-03T03:24:55.404Z,22.02
2018-02-03T03:25:57.890Z,22.06
2018-02-03T03:27:00.361Z,22.08
2018-02-03T03:28:02.845Z,22.16
2018-02-03T03:29:05.320Z,22.21
2018-02-03T03:30:07.787Z,22.23
2018-02-03T03:31:10.269Z,22.29
2018-02-03T03:32:12.727Z,22.33
2018-02-03T03:33:15.182Z,22.34
2018-02-03T03:34:17.668Z,22.33
2018-02-03T03:35:20.122Z,22.33
2018-02-03T03:36:22.594Z,22.33
2018-02-03T03:37:25.111Z,22.35
2018-02-03T03:38:27.585Z,22.34
2018-02-03T03:39:30.051Z,22.31
2018-02-03T03:40:32.506Z,22.30
2018-02-03T03:41:34.962Z,22.25
2018-02-03T03:42:37.421Z,22.23
2018-02-03T03:43:39.878Z,22.19
2018-02-03T03:44:42.334Z,22.14
2018-02-03T03:45:44.813Z,22.10
2018-02-03T03:46:47.266Z,22.06
2018-02-03T03:47:49.741Z,22.04
2018-02-03T03:48:52.194Z,22.05
2018-02-03T03:49:54.647Z,22.06
2018-02-03T03:50:57.119Z,22.08
2018-02-03T03:51:59.621Z,22.11
2018-02-03T03:53:02.079Z,22.14
2018-02-03T03:54:04.539Z,22.20
2018-02-03T03:55:07.012Z,22.27
2018-02-03T03:56:09.484Z,22.28
2018-02-03T03:57:11.977Z,22.32
2018-02-03T03:58:14.448Z,22.34
2018-02-03T03:59:16.903Z,22.33
2018-02-03T04:00:19.406Z,22.34
2018-02-03T04:01:21.920Z,22.35
2018-02-03T04:02:24.426Z,22.32
2018-02-03T04:03:26.897Z,22.31
2018-02-03T04:04:29.371Z,22.29
2018-02-03T04:05:31.840Z,22.24
2018-02-03T04:06:34.320Z,22.21
2018-02-03T04:07:36.803Z,22.17
2018-02-03T04:08:39.267Z,22.15
2018-02-03T04:09:41.776Z,22.11
2018-02-03T04:10:44.252Z,22.07
2018-02-03T04:11:46.726Z,22.02
2018-02-03T04:12:49.230Z,21.99
2018-02-03T04:13:51.700Z,22.00
2018-02-03T04:14:54.159Z,22.00
2018-02-03T04:15:56.619Z,22.01
2018-02-03T04:16:59.074Z,22.09
2018-02-03T04:18:01.573Z,22.14
2018-02-03T04:19:04.030Z,22.19
2018-02-03T04:20:06.482Z,22.23
2018-02-03T04:21:08.953Z,22.30
2018-02-03T04:22:11.411Z,22.33
2018-02-03T04:23:13.905Z,22.36
2018-02-03T04:24:16.365Z,22.38
2018-02-03T04:25:18.846Z,22.37
2018-02-03T04:26:21.322Z,22.37
2018-02-03T04:27:23.793Z,22.37
2018-02-03T04:28:26.271Z,22.35
2018-02-03T04:29:28.754Z,22.31
2018-02-03T04:30:31.249Z,22.30
2018-02-03T04:31:33.715Z,22.27
2018-02-03T04:32:36.165Z,22.23
2018-02-03T04:33:38.642Z,22.20
2018-02-03T04:34:41.094Z,22.16
2018-02-03T04:35:43.561Z,22.12
2018-02-03T04:36:46.037Z,22.08
2018-02-03T04:37:48.514Z,22.03
2018-02-03T04:38:51.005Z,22.00
2018-02-03T04:39:53.459Z,21.98
2018-02-03T04:40:55.920Z,21.97
2018-02-03T04:41:58.376Z,22.02
2018-02-03T04:43:00.834Z,22.05
2018-02-03T04:44:03.310Z,22.15
2018-02-03T04:45:05.770Z,22.20
2018-02-03T04:46:08.245Z,22.24
2018-02-03T04:47:10.718Z,22.29
2018-02-03T04:48:13.183Z,22.32
2018-02-03T04:49:15.667Z,22.33
2018-02-03T04:50:18.161Z,22.34
2018-02-03T04:51:20.614Z,22.34
2018-02-03T04:52:23.070Z,22.34
2018-02-03T04:53:25.545Z,22.32
2018-02-03T04:54:28.075Z,22.31
2018-02-03T04:55:30.549Z,22.30
2018-02-03T04:56:33.040Z,22.28
2018-02-03T04:57:35.494Z,22.26
2018-02-03T04:58:37.950Z,22.24
2018-02-03T04:59:40.442Z,22.21
2018-02-03T05:00:42.933Z,22.18
2018-02-03T05:01:45.404Z,22.16
2018-02-03T05:02:47.901Z,22.11
2018-02-03T05:03:50.362Z,22.09
2018-02-03T05:04:52.850Z,22.08
2018-02-03T05:05:55.388Z,22.07
2018-02-03T05:06:57.872Z,22.09
2018-02-03T05:08:00.353Z,22.11
2018-02-03T05:09:02.806Z,22.15
2018-02-03T05:10:05.304Z,22.20
2018-02-03T05:11:07.763Z,22.25
2018-02-03T05:12:10.218Z,22.27
2018-02-03T05:13:12.717Z,22.30
2018-02-03T05:14:15.197Z,22.36
2018-02-03T05:15:17.688Z,22.37
2018-02-03T05:16:20.169Z,22.38
2018-02-03T05:17:22.678Z,22.40
2018-02-03T05:18:25.176Z,22.37
2018-02-03T05:19:27.642Z,22.36
2018-02-03T05:20:30.126Z,22.35
2018-02-03T05:21:32.582Z,22.31
2018-02-03T05:22:35.063Z,22.30
2018-02-03T05:23:37.537Z,22.28
2018-02-03T05:24:40.013Z,22.27
2018-02-03T05:25:42.508Z,22.23
2018-02-03T05:26:44.962Z,22.20
2018-02-03T05:27:47.437Z,22.17
2018-02-03T05:28:49.903Z,22.13
2018-02-03T05:29:52.373Z,22.10
2018-02-03T05:30:54.864Z,22.09
2018-02-03T05:31:57.333Z,22.07
2018-02-03T05:32:59.794Z,22.06
2018-02-03T05:34:02.246Z,22.05
2018-02-03T05:35:04.721Z,22.02
2018-02-03T05:36:07.237Z,22.05
2018-02-03T05:37:09.708Z,22.12
2018-02-03T05:38:12.165Z,22.15
2018-02-03T05:39:14.633Z,22.18
2018-02-03T05:40:17.091Z,22.23
2018-02-03T05:41:19.581Z,22.29
2018-02-03T05:42:22.034Z,22.35
2018-02-03T05:43:24.514Z,22.38
2018-02-03T05:44:29.589Z,22.39
2018-02-03T05:45:32.073Z,22.40
2018-02-03T05:46:34.573Z,22.40
2018-02-03T05:47:37.052Z,22.38
2018-02-03T05:48:39.515Z,22.38
2018-02-03T05:49:41.971Z,22.36
2018-02-03T05:50:44.435Z,22.33
2018-02-03T05:51:46.890Z,22.33
2018-02-03T05:52:49.361Z,22.30
2018-02-03T05:53:51.823Z,22.28
2018-02-03T05:54:54.296Z,22.25
2018-02-03T05:55:56.758Z,22.20
2018-02-03T05:56:59.213Z,22.16
2018-02-03T05:58:01.684Z,22.12
2018-02-03T05:59:04.157Z,22.08
2018-02-03T06:00:06.626Z,22.03
2018-02-03T06:01:09.101Z,22.06
2018-02-03T06:02:11.579Z,22.11
2018-02-03T06:03:14.108Z,22.13
2018-02-03T06:04:16.583Z,22.18
2018-02-03T06:05:19.045Z,22.24
2018-02-03T06:06:21.512Z,22.25
2018-02-03T06:07:23.985Z,22.28
2018-02-03T06:08:26.457Z,22.31
2018-02-03T06:09:28.933Z,22.31
2018-02-03T06:10:31.403Z,22.32
2018-02-03T06:11:33.858Z,22.31
2018-02-03T06:12:36.329Z,22.31
2018-02-03T06:13:38.792Z,22.29
2018-02-03T06:14:41.246Z,22.30
2018-02-03T06:15:43.720Z,22.27
2018-02-03T06:16:46.174Z,22.28
2018-02-03T06:17:48.626Z,22.25
2018-02-03T06:18:51.083Z,22.22
2018-02-03T06:19:53.543Z,22.19
2018-02-03T06:20:56.016Z,22.19
2018-02-03T06:21:58.470Z,22.16
2018-02-03T06:23:00.950Z,22.13
2018-02-03T06:24:03.406Z,22.11
2018-02-03T06:25:05.916Z,22.10
2018-02-03T06:26:08.357Z,22.07
2018-02-03T06:27:10.840Z,22.05
2018-02-03T06:28:13.319Z,22.02
2018-02-03T06:29:15.780Z,22.00
2018-02-03T06:30:18.257Z,21.98
2018-02-03T06:31:20.715Z,21.94
2018-02-03T06:32:23.170Z,21.92
2018-02-03T06:33:25.649Z,21.88
2018-02-03T06:34:28.110Z,21.87
2018-02-03T06:35:30.583Z,21.83
2018-02-03T06:36:33.046Z,21.81
2018-02-03T06:37:35.654Z,21.78
2018-02-03T06:38:38.114Z,21.74
2018-02-03T06:39:40.578Z,21.71
2018-02-03T06:40:43.051Z,21.67
2018-02-03T06:41:45.525Z,21.65
2018-02-03T06:42:47.996Z,21.63
2018-02-03T06:43:50.477Z,21.61
2018-02-03T06:44:52.938Z,21.58
2018-02-03T06:45:55.391Z,21.55
2018-02-03T06:46:57.860Z,21.53
2018-02-03T06:48:00.326Z,21.50
2018-02-03T06:49:02.800Z,21.48
2018-02-03T06:50:05.277Z,21.46
2018-02-03T06:51:07.744Z,21.43
2018-02-03T06:52:10.198Z,21.41
2018-02-03T06:53:12.669Z,21.37
2018-02-03T06:54:15.145Z,21.35
2018-02-03T06:55:17.629Z,21.33
2018-02-03T06:56:20.104Z,21.31
2018-02-03T06:57:22.558Z,21.30
2018-02-03T06:58:25.037Z,21.30
2018-02-03T06:59:27.520Z,21.28
2018-02-03T07:00:29.982Z,21.26
2018-02-03T07:01:32.461Z,21.24
2018-02-03T07:02:35.022Z,21.21
2018-02-03T07:03:37.478Z,21.21
2018-02-03T07:04:39.953Z,21.19
2018-02-03T07:05:42.419Z,21.17
2018-02-03T07:06:44.891Z,21.15
2018-02-03T07:07:47.373Z,21.13
2018-02-03T07:08:49.844Z,21.12
2018-02-03T07:09:52.299Z,21.10
2018-02-03T07:10:54.776Z,21.08
2018-02-03T07:11:57.318Z,21.06
2018-02-03T07:12:59.827Z,21.04
2018-02-03T07:14:02.300Z,21.02
2018-02-03T07:15:04.773Z,21.01
2018-02-03T07:16:07.244Z,20.99
2018-02-03T07:17:09.703Z,20.97
2018-02-03T07:18:12.178Z,20.96
2018-02-03T07:19:14.652Z,20.94
2018-02-03T07:20:17.102Z,20.94
2018-02-03T07:21:19.570Z,20.92
2018-02-03T07:22:22.026Z,20.89
2018-02-03T07:23:24.508Z,20.87
2018-02-03T07:24:26.973Z,20.85
2018-02-03T07:25:29.453Z,20.82
2018-02-03T07:26:31.919Z,20.80
2018-02-03T07:27:34.405Z,20.79
2018-02-03T07:28:36.875Z,20.76
2018-02-03T07:29:40.597Z,20.73
2018-02-03T07:30:43.519Z,20.69
2018-02-03T07:31:46.002Z,20.67
2018-02-03T07:32:48.526Z,20.63
2018-02-03T07:33:50.991Z,20.60
2018-02-03T07:34:53.678Z,20.58
2018-02-03T07:35:56.327Z,20.55
2018-02-03T07:36:58.818Z,20.52
2018-02-03T07:38:01.410Z,20.50
2018-02-03T07:39:03.898Z,20.48
2018-02-03T07:40:06.358Z,20.46
2018-02-03T07:41:08.829Z,20.44
2018-02-03T07:42:11.477Z,20.41
2018-02-03T07:43:14.032Z,20.39
2018-02-03T07:44:16.517Z,20.36
2018-02-03T07:45:18.992Z,20.35
2018-02-03T07:46:21.469Z,20.32
2018-02-03T07:47:23.952Z,20.31
2018-02-03T07:48:26.421Z,20.29
2018-02-03T07:49:28.901Z,20.27
2018-02-03T07:50:31.385Z,20.25
2018-02-03T07:51:33.860Z,20.22
2018-02-03T07:52:36.341Z,20.20
2018-02-03T07:53:38.806Z,20.19
2018-02-03T07:54:41.272Z,20.17
2018-02-03T07:55:43.730Z,20.14
2018-02-03T07:56:46.209Z,20.13
2018-02-03T07:57:48.679Z,20.10
2018-02-03T07:58:51.135Z,20.08
2018-02-03T07:59:53.631Z,20.06
2018-02-03T08:00:56.095Z,20.05
2018-02-03T08:01:58.594Z,20.04
2018-02-03T08:03:01.055Z,20.03
2018-02-03T08:04:03.511Z,20.02
2018-02-03T08:05:05.976Z,20.02
2018-02-03T08:06:08.442Z,20.01
2018-02-03T08:07:10.912Z,19.99
2018-02-03T08:08:13.372Z,19.98
2018-02-03T08:09:15.838Z,19.96
2018-02-03T08:10:18.318Z,19.94
2018-02-03T08:11:20.774Z,19.93
2018-02-03T08:12:23.245Z,19.92
2018-02-03T08:13:25.718Z,19.91
2018-02-03T08:14:28.183Z,19.89
2018-02-03T08:15:30.653Z,19.87
2018-02-03T08:16:33.152Z,19.85
2018-02-03T08:17:35.638Z,19.84
2018-02-03T08:18:38.117Z,19.84
2018-02-03T08:19:40.627Z,19.82
2018-02-03T08:20:43.090Z,19.81
2018-02-03T08:21:45.554Z,19.79
2018-02-03T08:22:48.008Z,19.78
2018-02-03T08:23:50.480Z,19.76
2018-02-03T08:24:52.940Z,19.74
2018-02-03T08:25:55.425Z,19.72
2018-02-03T08:26:57.914Z,19.72
2018-02-03T08:28:00.371Z,19.71
2018-02-03T08:29:02.855Z,19.69
2018-02-03T08:30:05.372Z,19.69
2018-02-03T08:31:07.844Z,19.69
2018-02-03T08:32:10.313Z,19.68
2018-02-03T08:33:12.793Z,19.68
2018-02-03T08:34:15.289Z,19.68
2018-02-03T08:35:17.744Z,19.68
2018-02-03T08:36:20.210Z,19.68
2018-02-03T08:37:22.939Z,19.67
2018-02-03T08:38:25.787Z,19.67
2018-02-03T08:39:28.582Z,19.68
2018-02-03T08:40:31.058Z,19.68
2018-02-03T08:41:33.519Z,19.68
2018-02-03T08:42:35.974Z,19.71
2018-02-03T08:43:38.443Z,19.79
2018-02-03T08:44:40.906Z,19.88
2018-02-03T08:45:43.376Z,20.00
2018-02-03T08:46:45.834Z,20.12
2018-02-03T08:47:48.334Z,20.23
2018-02-03T08:48:50.813Z,20.34
2018-02-03T08:49:53.283Z,20.41
2018-02-03T08:50:55.848Z,20.52
2018-02-03T08:51:58.354Z,20.58
2018-02-03T08:53:00.833Z,20.67
2018-02-03T08:54:03.298Z,20.72
2018-02-03T08:55:05.773Z,20.79
2018-02-03T08:56:08.235Z,20.83
2018-02-03T08:57:10.693Z,20.87
2018-02-03T08:58:13.158Z,20.90
2018-02-03T08:59:15.625Z,20.92
2018-02-03T09:00:18.086Z,20.91
2018-02-03T09:01:20.550Z,20.87
2018-02-03T09:02:23.031Z,20.85
2018-02-03T09:03:25.516Z,20.84
2018-02-03T09:04:27.974Z,20.83
2018-02-03T09:05:30.445Z,20.85
2018-02-03T09:06:32.980Z,20.87
2018-02-03T09:07:35.456Z,20.89
2018-02-03T09:08:37.910Z,20.96
2018-02-03T09:09:40.375Z,21.01
2018-02-03T09:10:42.839Z,21.05
2018-02-03T09:11:57.199Z,21.08
2018-02-03T09:12:59.677Z,21.09
2018-02-03T09:14:02.151Z,21.11
2018-02-03T09:15:04.611Z,21.06
2018-02-03T09:16:07.079Z,20.98
2018-02-03T09:17:09.564Z,20.92
2018-02-03T09:18:12.296Z,20.89
2018-02-03T09:19:14.808Z,20.87
2018-02-03T09:20:17.299Z,20.85
2018-02-03T09:21:20.067Z,20.83
2018-02-03T09:22:22.594Z,20.82
2018-02-03T09:23:25.295Z,20.77
2018-02-03T09:24:27.818Z,20.72
2018-02-03T09:25:30.290Z,20.72
2018-02-03T09:26:32.766Z,20.76
2018-02-03T09:27:35.256Z,20.73
2018-02-03T09:28:37.738Z,20.77
2018-02-03T09:29:40.225Z,20.69
2018-02-03T09:30:42.700Z,20.55
2018-02-03T09:31:45.185Z,20.46
2018-02-03T09:32:47.661Z,20.31
2018-02-03T09:33:50.127Z,20.22
2018-02-03T09:34:52.679Z,20.18
2018-02-03T09:35:55.161Z,20.15
2018-02-03T09:36:57.695Z,20.15
2018-02-03T09:38:00.163Z,20.20
2018-02-03T09:39:02.631Z,20.28
2018-02-03T09:40:05.123Z,20.39
2018-02-03T09:41:07.590Z,20.49
2018-02-03T09:42:10.061Z,20.64
2018-02-03T09:43:12.537Z,20.83
2018-02-03T09:44:15.010Z,20.95
2018-02-03T09:45:17.495Z,21.03
2018-02-03T09:46:19.971Z,21.09
2018-02-03T09:47:22.438Z,21.11
2018-02-03T09:48:24.921Z,21.12
2018-02-03T09:49:27.391Z,21.14
2018-02-03T09:50:29.869Z,21.18
2018-02-03T09:51:32.376Z,21.22
2018-02-03T09:52:34.863Z,21.22
2018-02-03T09:53:37.348Z,21.19
2018-02-03T09:54:39.841Z,21.17
2018-02-03T09:55:42.308Z,21.18
2018-02-03T09:56:44.776Z,21.14
2018-02-03T09:57:47.258Z,21.19
2018-02-03T09:58:49.726Z,21.23
2018-02-03T09:59:52.212Z,21.25
2018-02-03T10:00:54.697Z,21.26
2018-02-03T10:01:57.172Z,21.31
2018-02-03T10:02:59.643Z,21.42
2018-02-03T10:04:02.109Z,21.48
2018-02-03T10:05:04.592Z,21.52
2018-02-03T10:06:07.058Z,21.55
2018-02-03T10:07:09.523Z,21.61
2018-02-03T10:08:11.987Z,21.60
2018-02-03T10:09:14.455Z,21.64
2018-02-03T10:10:16.923Z,21.65
2018-02-03T10:11:19.387Z,21.64
2018-02-03T10:12:21.864Z,21.63
2018-02-03T10:13:24.364Z,21.65
2018-02-03T10:14:26.822Z,21.63
2018-02-03T10:15:29.301Z,21.61
2018-02-03T10:16:31.776Z,21.60
2018-02-03T10:17:34.405Z,21.57
2018-02-03T10:18:36.986Z,21.54
2018-02-03T10:19:39.454Z,21.52
2018-02-03T10:20:41.923Z,21.49
2018-02-03T10:21:44.473Z,21.45
2018-02-03T10:22:46.935Z,21.43
2018-02-03T10:23:49.409Z,21.40
2018-02-03T10:24:51.942Z,21.37
2018-02-03T10:25:54.407Z,21.33
2018-02-03T10:26:56.887Z,21.29
2018-02-03T10:27:59.346Z,21.27
2018-02-03T10:29:01.809Z,21.26
2018-02-03T10:30:04.335Z,21.24
2018-02-03T10:31:06.819Z,21.22
2018-02-03T10:32:09.279Z,21.19
2018-02-03T10:33:11.797Z,21.17
2018-02-03T10:34:14.262Z,21.17
2018-02-03T10:35:16.728Z,21.15
2018-02-03T10:36:19.205Z,21.12
2018-02-03T10:37:21.676Z,21.10
2018-02-03T10:38:24.163Z,21.09
2018-02-03T10:39:26.631Z,21.07
2018-02-03T10:40:29.092Z,21.04
2018-02-03T10:41:31.569Z,21.02
2018-02-03T10:42:34.030Z,21.00
2018-02-03T10:43:36.510Z,20.98
2018-02-03T10:44:38.989Z,20.96
2018-02-03T10:45:41.472Z,20.94
2018-02-03T10:46:43.940Z,20.90
2018-02-03T10:47:46.515Z,20.89
2018-02-03T10:48:48.984Z,20.87
2018-02-03T10:49:51.460Z,20.85
2018-02-03T10:50:53.941Z,20.82
2018-02-03T10:51:56.429Z,20.81
2018-02-03T10:52:58.891Z,20.78
2018-02-03T10:54:01.374Z,20.76
2018-02-03T10:55:03.872Z,20.73
2018-02-03T10:56:06.331Z,20.71
2018-02-03T10:57:08.823Z,20.68
2018-02-03T10:58:11.325Z,20.66
2018-02-03T10:59:13.856Z,20.64
2018-02-03T11:00:16.334Z,20.62
2018-02-03T11:01:18.821Z,20.60
2018-02-03T11:02:21.283Z,20.58
2018-02-03T11:03:23.757Z,20.57
2018-02-03T11:04:26.281Z,20.55
2018-02-03T11:05:28.746Z,20.52
2018-02-03T11:06:31.227Z,20.51
2018-02-03T11:07:33.719Z,20.50
2018-02-03T11:08:36.204Z,20.47
2018-02-03T11:09:38.690Z,20.45
2018-02-03T11:10:41.158Z,20.43
2018-02-03T11:11:43.633Z,20.40
2018-02-03T11:12:46.183Z,20.39
2018-02-03T11:13:48.646Z,20.37
2018-02-03T11:14:51.111Z,20.35
2018-02-03T11:15:53.585Z,20.34
2018-02-03T11:16:56.044Z,20.33
2018-02-03T11:17:58.518Z,20.31
2018-02-03T11:19:00.980Z,20.29
2018-02-03T11:20:03.446Z,20.28
2018-02-03T11:21:05.921Z,20.27
2018-02-03T11:22:08.396Z,20.25
2018-02-03T11:23:10.860Z,20.23
2018-02-03T11:24:13.338Z,20.21
2018-02-03T11:25:15.799Z,20.20
2018-02-03T11:26:18.293Z,20.18
2018-02-03T11:27:20.751Z,20.17
2018-02-03T11:28:23.225Z,20.16
2018-02-03T11:29:25.695Z,20.14
2018-02-03T11:30:28.146Z,20.13
2018-02-03T11:31:30.611Z,20.11
2018-02-03T11:32:33.102Z,20.10
2018-02-03T11:33:35.577Z,20.08
2018-02-03T11:34:38.069Z,20.07
2018-02-03T11:35:40.545Z,20.05
2018-02-03T11:36:43.006Z,20.04
2018-02-03T11:37:45.481Z,20.03
2018-02-03T11:38:47.957Z,20.02
2018-02-03T11:39:50.436Z,20.01
2018-02-03T11:40:52.908Z,20.00
2018-02-03T11:41:55.371Z,19.99
2018-02-03T11:42:57.834Z,19.98
2018-02-03T11:44:00.313Z,19.97
2018-02-03T11:45:02.794Z,19.96
2018-02-03T11:46:05.273Z,19.95
2018-02-03T11:47:07.765Z,19.94
2018-02-03T11:48:10.241Z,19.93
2018-02-03T11:49:12.746Z,19.93
2018-02-03T11:50:15.206Z,19.91
2018-02-03T11:51:17.663Z,19.90
2018-02-03T11:52:20.137Z,19.89
2018-02-03T11:53:22.609Z,19.88
2018-02-03T11:54:25.077Z,19.87
2018-02-03T11:55:27.562Z,19.87
2018-02-03T11:56:30.038Z,19.86
2018-02-03T11:57:32.508Z,19.85
2018-02-03T11:58:35.122Z,19.85
2018-02-03T11:59:37.597Z,19.84
2018-02-03T12:00:40.055Z,19.83
2018-02-03T12:01:42.515Z,19.82
2018-02-03T12:02:44.996Z,19.81
2018-02-03T12:03:47.477Z,19.81
2018-02-03T12:04:49.945Z,19.80
2018-02-03T12:05:52.414Z,19.79
2018-02-03T12:06:54.875Z,19.78
2018-02-03T12:07:57.356Z,19.77
2018-02-03T12:08:59.837Z,19.77
2018-02-03T12:10:02.295Z,19.76
2018-02-03T12:11:04.759Z,19.76
2018-02-03T12:12:07.227Z,19.75
2018-02-03T12:13:09.709Z,19.74
2018-02-03T12:14:12.184Z,19.73
2018-02-03T12:15:14.702Z,19.72
2018-02-03T12:16:17.159Z,19.71
2018-02-03T12:17:19.632Z,19.71
2018-02-03T12:18:22.105Z,19.70
2018-02-03T12:19:24.563Z,19.69
2018-02-03T12:20:27.141Z,19.68
2018-02-03T12:21:29.603Z,19.68
2018-02-03T12:22:32.075Z,19.67
2018-02-03T12:23:34.548Z,19.67
2018-02-03T12:24:37.029Z,19.67
2018-02-03T12:25:39.494Z,19.67
2018-02-03T12:26:41.951Z,19.67
2018-02-03T12:27:44.424Z,19.67
2018-02-03T12:28:46.886Z,19.67
2018-02-03T12:29:49.360Z,19.65
2018-02-03T12:30:51.823Z,19.65
2018-02-03T12:31:54.296Z,19.64
2018-02-03T12:32:56.772Z,19.63
2018-02-03T12:33:59.399Z,19.62
2018-02-03T12:35:01.863Z,19.60
2018-02-03T12:36:04.359Z,19.58
2018-02-03T12:37:06.815Z,19.57
2018-02-03T12:38:09.297Z,19.56
2018-02-03T12:39:11.774Z,19.55
2018-02-03T12:40:14.576Z,19.54
2018-02-03T12:41:17.055Z,19.52
2018-02-03T12:42:19.529Z,19.51
2018-02-03T12:43:22.033Z,19.51
2018-02-03T12:44:24.491Z,19.50
2018-02-03T12:45:26.969Z,19.50
2018-02-03T12:46:29.434Z,19.49
2018-02-03T12:47:31.893Z,19.49
2018-02-03T12:48:34.365Z,19.50
2018-02-03T12:49:36.823Z,19.50
2018-02-03T12:50:39.296Z,19.53
2018-02-03T12:51:41.762Z,19.51
2018-02-03T12:52:44.225Z,19.49
2018-02-03T12:53:46.694Z,19.49
2018-02-03T12:54:49.163Z,19.48
2018-02-03T12:55:51.619Z,19.46
2018-02-03T12:56:54.094Z,19.45
2018-02-03T12:57:56.560Z,19.42
2018-02-03T12:58:59.019Z,19.41
2018-02-03T13:00:01.497Z,19.39
2018-02-03T13:01:03.977Z,19.37
2018-02-03T13:02:06.450Z,19.34
2018-02-03T13:03:08.911Z,19.31
2018-02-03T13:04:11.375Z,19.30
2018-02-03T13:05:13.900Z,19.27
2018-02-03T13:06:16.373Z,19.25
2018-02-03T13:07:18.846Z,19.23
2018-02-03T13:08:21.324Z,19.21
2018-02-03T13:09:23.824Z,19.19
2018-02-03T13:10:26.302Z,19.17
2018-02-03T13:11:28.780Z,19.15
2018-02-03T13:12:31.266Z,19.13
2018-02-03T13:13:33.763Z,19.12
2018-02-03T13:14:36.234Z,19.09
2018-02-03T13:15:38.784Z,19.07
2018-02-03T13:16:41.260Z,19.07
2018-02-03T13:17:43.715Z,19.05
2018-02-03T13:18:46.260Z,19.03
2018-02-03T13:19:48.761Z,19.01
2018-02-03T13:20:51.232Z,19.01
2018-02-03T13:21:53.716Z,19.00
2018-02-03T13:22:56.201Z,18.99
2018-02-03T13:23:58.779Z,18.98
2018-02-03T13:25:01.253Z,18.97
2018-02-03T13:26:04.182Z,18.96